Homestead ARB Airport
KHST : rendu visible

Aérodrome :











RETROUVEZ-NOUS SUR...

 
LOGIN :

S'inscrire | Disclaimer

   EN    FR    IT 

 









Légende :    VFR   VFR Marginal   IFR   IFR Intensif   IFR Très Intensif
Visi : 
Plafond : 
>= 8 km
>= 3000ft
5 à 8 km
1000 à 3000 ft
1500m à 5 km
500 à 1000 ft
800 à 1500m
200 à 500 ft
< 800m
< 200 ft
Symboles :   Orages  Brouillard  Fortes neiges  Fortes précipitations  Vent > 20 kt






- Altitude de l'aérodrome : 5 ft


KHST - Homestead ARB

DERNIER METAR :
  • 210056Z AUTO 34008KT 10SM SCT065 19/09 A3010 RMK AO2 SLP196 T01850087 $

METARs EXPIRÉS :
  • 202356Z AUTO 33011KT 10SM CLR 20/13 A3008 RMK AO2 SLP189 T01950125 10249 20195 53016 $
  • 202256Z AUTO 31010KT 10SM FEW170 21/14 A3005 RMK AO2 SLP179 T02120139 $

TAF TAF KHST
Valide du 20 à 20h jusqu'au 22 à 02h UTC


202000Z 2020/2202 34012G18KT 9999 BKN040 QNH3003INS TX24/2020Z TN11/2110Z



MET'MAP, la Météo Aéronautique d'un coup d'oeil ! - Copyright ORBIFLY Décembre 2007 - Disclaimer

ORBIFLY MET'MAP TEAM :

Programmation & Développement : Alexandra Zaïnal
Sur une idée originale de : Baudouin d'Aumeries
Assistance à la programmation : Marc-Olivier Méhu
Soutien technique & logistique : Manuel Goepfert

Contact : metmap@orbifly.com




SOURCES & CREDITS :

   NOAA       Earth
Advisory